createdAt,value
2019-06-15T00:02:05.551Z,4.43
2019-06-15T00:04:33.520Z,3.10
2019-06-15T00:06:59.766Z,3.63
2019-06-15T00:09:25.999Z,3.77
2019-06-15T00:11:52.446Z,3.83
2019-06-15T00:14:18.708Z,3.67
2019-06-15T00:16:44.849Z,3.07
2019-06-15T00:19:11.079Z,4.33
2019-06-15T00:21:38.372Z,4.00
2019-06-15T00:24:05.420Z,3.40
2019-06-15T00:26:31.595Z,3.37
2019-06-15T00:28:59.632Z,4.03
2019-06-15T00:31:25.906Z,3.87
2019-06-15T00:33:53.945Z,4.00
2019-06-15T00:36:20.217Z,3.13
2019-06-15T00:38:48.247Z,3.60
2019-06-15T00:41:15.652Z,3.67
2019-06-15T00:43:41.909Z,3.10
2019-06-15T00:46:08.149Z,3.53
2019-06-15T00:48:34.444Z,3.23
2019-06-15T00:51:00.579Z,3.80
2019-06-15T00:53:26.807Z,3.73
2019-06-15T00:55:53.058Z,3.60
2019-06-15T00:58:19.302Z,3.77
2019-06-15T01:00:45.443Z,4.50
2019-06-15T01:03:11.681Z,3.30
2019-06-15T01:05:37.923Z,3.53
2019-06-15T01:08:04.151Z,3.30
2019-06-15T01:10:30.575Z,3.30
2019-06-15T01:12:56.716Z,3.10
2019-06-15T01:15:22.947Z,3.73
2019-06-15T01:17:49.385Z,3.63
2019-06-15T01:20:16.122Z,4.10
2019-06-15T01:22:42.348Z,3.67
2019-06-15T01:25:09.133Z,3.87
2019-06-15T01:27:37.571Z,3.50
2019-06-15T01:30:06.592Z,3.47
2019-06-15T01:32:32.876Z,4.83
2019-06-15T01:35:00.454Z,4.80
2019-06-15T01:37:27.001Z,4.43
2019-06-15T01:39:53.222Z,4.63
2019-06-15T01:42:19.495Z,4.67
2019-06-15T01:44:45.828Z,4.33
2019-06-15T01:47:12.070Z,4.23
2019-06-15T01:49:38.298Z,4.20
2019-06-15T01:52:04.567Z,4.80
2019-06-15T01:54:32.608Z,4.47
2019-06-15T01:56:58.838Z,4.67
2019-06-15T01:59:25.119Z,4.40
2019-06-15T02:01:51.344Z,3.93
2019-06-15T02:04:17.887Z,4.57
2019-06-15T02:06:44.137Z,4.10
2019-06-15T02:09:10.730Z,4.07
2019-06-15T02:11:36.951Z,4.30
2019-06-15T02:14:04.291Z,4.00
2019-06-15T02:16:30.579Z,4.83
2019-06-15T02:18:56.795Z,4.33
2019-06-15T02:21:23.050Z,4.77
2019-06-15T02:23:49.280Z,4.30
2019-06-15T02:26:15.536Z,4.17
2019-06-15T02:28:43.045Z,3.90
2019-06-15T02:31:09.172Z,3.60
2019-06-15T02:33:35.309Z,4.03
2019-06-15T02:36:01.453Z,4.47
2019-06-15T02:38:27.689Z,4.50
2019-06-15T02:40:53.928Z,4.33
2019-06-15T02:43:20.176Z,3.40
2019-06-15T02:45:51.745Z,4.10
2019-06-15T02:48:18.132Z,4.27
2019-06-15T02:50:44.598Z,3.97
2019-06-15T02:53:12.663Z,3.90
2019-06-15T02:55:50.133Z,3.90
2019-06-15T02:58:07.354Z,3.37
2019-06-15T03:00:46.064Z,3.97
2019-06-15T03:03:12.214Z,3.70
2019-06-15T03:05:38.796Z,3.70
2019-06-15T03:08:05.046Z,3.57
2019-06-15T03:10:32.003Z,3.47
2019-06-15T03:12:59.342Z,4.37
2019-06-15T03:15:25.597Z,5.20
2019-06-15T03:17:51.821Z,4.63
2019-06-15T03:20:18.222Z,4.40
2019-06-15T03:22:44.496Z,5.30
2019-06-15T03:25:11.289Z,4.60
2019-06-15T03:27:37.534Z,5.10
2019-06-15T03:30:06.073Z,4.80
2019-06-15T03:32:32.223Z,4.70
2019-06-15T03:35:00.483Z,5.50
2019-06-15T03:37:27.097Z,5.43
2019-06-15T03:39:53.336Z,4.43
2019-06-15T03:42:19.675Z,4.67
2019-06-15T03:44:46.211Z,4.60
2019-06-15T03:47:13.407Z,5.30
2019-06-15T03:49:39.655Z,4.73
2019-06-15T03:52:07.687Z,5.00
2019-06-15T03:54:34.242Z,5.67
2019-06-15T03:57:00.361Z,5.33
2019-06-15T03:59:26.653Z,5.30
2019-06-15T04:01:52.882Z,5.43
2019-06-15T04:04:19.150Z,5.00
2019-06-15T04:06:45.292Z,5.30
2019-06-15T04:09:11.524Z,4.90
2019-06-15T04:11:37.749Z,5.13
2019-06-15T04:14:04.296Z,5.00
2019-06-15T04:16:32.343Z,4.97
2019-06-15T04:18:58.476Z,5.10
2019-06-15T04:21:26.042Z,5.43
2019-06-15T04:23:52.317Z,5.53
2019-06-15T04:26:18.545Z,5.57
2019-06-15T04:28:44.807Z,6.07
2019-06-15T04:31:11.033Z,5.17
2019-06-15T04:33:37.466Z,5.20
2019-06-15T04:36:05.525Z,5.50
2019-06-15T04:38:31.755Z,5.50
2019-06-15T04:40:57.979Z,5.60
2019-06-15T04:43:24.104Z,5.83
2019-06-15T04:45:50.581Z,5.40
2019-06-15T04:48:16.723Z,6.10
2019-06-15T04:50:44.791Z,5.20
2019-06-15T04:53:11.043Z,4.93
2019-06-15T04:55:37.426Z,5.17
2019-06-15T04:58:03.790Z,5.00
2019-06-15T05:00:29.959Z,5.10
2019-06-15T05:02:57.199Z,5.23
2019-06-15T05:05:23.335Z,5.17
2019-06-15T05:07:49.609Z,4.83
2019-06-15T05:10:15.847Z,5.57
2019-06-15T05:12:42.367Z,5.53
2019-06-15T05:15:08.906Z,4.93
2019-06-15T05:17:35.128Z,5.50
2019-06-15T05:20:01.534Z,5.30
2019-06-15T05:22:27.809Z,5.27
2019-06-15T05:24:54.045Z,5.53
2019-06-15T05:27:20.281Z,5.63
2019-06-15T05:29:46.525Z,5.93
2019-06-15T05:32:12.810Z,5.33
2019-06-15T05:34:39.039Z,5.43
2019-06-15T05:37:05.314Z,6.00
2019-06-15T05:39:31.536Z,5.67
2019-06-15T05:41:59.320Z,5.47
2019-06-15T05:44:25.759Z,5.80
2019-06-15T05:46:53.813Z,5.93
2019-06-15T05:49:21.561Z,6.30
2019-06-15T05:51:47.829Z,5.80
2019-06-15T05:54:14.095Z,5.33
2019-06-15T05:56:40.341Z,4.67
2019-06-15T05:59:06.552Z,5.23
2019-06-15T06:01:32.815Z,5.43
2019-06-15T06:04:00.878Z,4.77
2019-06-15T06:06:28.843Z,5.17
2019-06-15T06:08:55.149Z,4.30
2019-06-15T06:11:21.259Z,4.30
2019-06-15T06:13:47.491Z,4.27
2019-06-15T06:16:13.728Z,4.43
2019-06-15T06:18:39.998Z,3.30
2019-06-15T06:21:06.247Z,3.60
2019-06-15T06:23:32.482Z,3.37
2019-06-15T06:25:58.712Z,3.53
2019-06-15T06:28:24.848Z,3.70
2019-06-15T06:30:51.082Z,3.90
2019-06-15T06:33:17.309Z,3.60
2019-06-15T06:35:43.551Z,3.70
2019-06-15T06:38:09.775Z,3.43
2019-06-15T06:40:36.024Z,3.20
2019-06-15T06:43:02.280Z,3.33
2019-06-15T06:45:28.539Z,3.40
2019-06-15T06:47:54.768Z,3.37
2019-06-15T06:50:22.738Z,4.10
2019-06-15T06:52:48.982Z,3.33
2019-06-15T06:55:15.331Z,3.77
2019-06-15T06:57:51.690Z,3.70
2019-06-15T07:00:09.905Z,3.67
2019-06-15T07:02:36.054Z,3.33
2019-06-15T07:05:04.990Z,3.80
2019-06-15T07:07:31.227Z,3.23
2019-06-15T07:09:57.460Z,3.63
2019-06-15T07:12:23.696Z,3.67
2019-06-15T07:14:49.950Z,3.47
2019-06-15T07:17:16.089Z,3.80
2019-06-15T07:19:42.215Z,3.47
2019-06-15T07:22:08.462Z,3.60
2019-06-15T07:24:34.728Z,3.77
2019-06-15T07:27:00.980Z,3.60
2019-06-15T07:29:27.107Z,3.90
2019-06-15T07:31:53.351Z,3.40
2019-06-15T07:34:19.481Z,3.10
2019-06-15T07:36:45.617Z,3.10
2019-06-15T07:39:11.851Z,3.23
2019-06-15T07:41:38.094Z,3.43
2019-06-15T07:44:04.353Z,2.90
2019-06-15T07:46:30.607Z,3.60
2019-06-15T07:48:56.736Z,3.17
2019-06-15T07:51:22.999Z,3.20
2019-06-15T07:53:49.287Z,2.93
2019-06-15T07:56:15.529Z,3.33
2019-06-15T07:58:41.797Z,3.10
2019-06-15T08:01:08.025Z,3.30
2019-06-15T08:03:34.254Z,3.70
2019-06-15T08:06:00.495Z,2.60
2019-06-15T08:08:26.760Z,2.53
2019-06-15T08:10:53.001Z,2.50
2019-06-15T08:13:19.138Z,2.70
2019-06-15T08:15:45.282Z,2.25
2019-06-15T08:18:11.517Z,2.70
2019-06-15T08:20:37.755Z,3.02
2019-06-15T08:23:03.985Z,2.92
2019-06-15T08:25:30.215Z,3.08
2019-06-15T08:27:56.344Z,2.85
2019-06-15T08:30:29.205Z,2.95
2019-06-15T08:32:55.475Z,3.12
2019-06-15T08:35:21.703Z,3.05
2019-06-15T08:37:47.924Z,2.60
2019-06-15T08:40:14.272Z,3.27
2019-06-15T08:42:40.400Z,2.83
2019-06-15T08:45:07.448Z,2.60
2019-06-15T08:47:33.675Z,6.10
2019-06-15T08:49:59.809Z,2.87
2019-06-15T08:52:25.989Z,2.67
2019-06-15T08:54:52.111Z,3.27
2019-06-15T08:57:18.362Z,3.10
2019-06-15T08:59:44.593Z,2.70
2019-06-15T09:02:10.727Z,2.95
2019-06-15T09:04:37.339Z,2.55
2019-06-15T09:07:03.624Z,3.08
2019-06-15T09:09:29.869Z,2.52
2019-06-15T09:11:55.995Z,2.90
2019-06-15T09:14:22.233Z,2.85
2019-06-15T09:16:48.469Z,2.77
2019-06-15T09:19:14.706Z,3.40
2019-06-15T09:21:40.948Z,3.27
2019-06-15T09:24:09.682Z,2.92
2019-06-15T09:26:35.834Z,2.58
2019-06-15T09:29:10.805Z,2.72
2019-06-15T09:31:30.224Z,2.27
2019-06-15T09:33:56.476Z,2.35
2019-06-15T09:36:22.678Z,2.60
2019-06-15T09:38:48.937Z,2.77
2019-06-15T09:41:15.167Z,2.58
2019-06-15T09:43:41.407Z,2.65
2019-06-15T09:46:07.644Z,2.40
2019-06-15T09:48:33.900Z,2.70
2019-06-15T09:51:00.161Z,2.70
2019-06-15T09:53:26.397Z,2.42
2019-06-15T09:55:52.542Z,2.87
2019-06-15T09:58:18.781Z,2.35
2019-06-15T10:00:45.032Z,2.47
2019-06-15T10:03:11.257Z,2.67
2019-06-15T10:05:37.513Z,2.50
2019-06-15T10:08:03.650Z,2.30
2019-06-15T10:10:29.997Z,2.45
2019-06-15T10:12:56.283Z,2.55
2019-06-15T10:15:22.611Z,2.27
2019-06-15T10:17:48.830Z,2.30
2019-06-15T10:20:16.199Z,2.80
2019-06-15T10:22:42.411Z,2.35
2019-06-15T10:25:08.656Z,2.37
2019-06-15T10:27:35.016Z,2.15
2019-06-15T10:30:03.091Z,2.37
2019-06-15T10:32:30.720Z,2.80
2019-06-15T10:34:56.953Z,2.25
2019-06-15T10:37:23.193Z,2.47
2019-06-15T10:39:49.446Z,2.22
2019-06-15T10:42:15.581Z,1.95
2019-06-15T10:44:41.824Z,2.15
2019-06-15T10:47:08.172Z,2.40
2019-06-15T10:49:34.427Z,2.20
2019-06-15T10:52:00.669Z,2.15
2019-06-15T10:54:26.922Z,2.27
2019-06-15T10:56:53.190Z,1.87
2019-06-15T10:59:19.431Z,2.15
2019-06-15T11:01:45.693Z,2.00
2019-06-15T11:04:11.913Z,2.20
2019-06-15T11:06:38.058Z,1.00
2019-06-15T11:09:06.643Z,1.10
2019-06-15T11:11:32.789Z,2.17
2019-06-15T11:13:59.055Z,2.05
2019-06-15T11:16:25.284Z,1.92
2019-06-15T11:18:51.434Z,1.80
2019-06-15T11:21:17.680Z,2.08
2019-06-15T11:23:43.957Z,2.15
2019-06-15T11:26:10.176Z,1.98
2019-06-15T11:28:36.424Z,2.20
2019-06-15T11:31:02.699Z,2.08
2019-06-15T11:33:28.929Z,2.33
2019-06-15T11:35:55.177Z,2.22
2019-06-15T11:38:21.416Z,2.27
2019-06-15T11:40:47.644Z,2.20
2019-06-15T11:43:13.882Z,2.42
2019-06-15T11:45:40.125Z,2.08
2019-06-15T11:48:06.368Z,2.12
2019-06-15T11:50:32.628Z,1.98
2019-06-15T11:52:58.863Z,1.92
2019-06-15T11:55:38.701Z,2.05
2019-06-15T11:57:53.314Z,2.10
2019-06-15T12:00:31.370Z,1.92
2019-06-15T12:02:51.288Z,2.08
2019-06-15T12:05:17.548Z,2.17
2019-06-15T12:07:43.674Z,2.10
2019-06-15T12:10:09.822Z,2.02
2019-06-15T12:12:36.024Z,1.98
2019-06-15T12:15:04.075Z,2.20
2019-06-15T12:17:32.149Z,1.85
2019-06-15T12:19:58.291Z,2.22
2019-06-15T12:22:24.456Z,2.17
2019-06-15T12:24:51.693Z,1.52
2019-06-15T12:27:17.818Z,1.87
2019-06-15T12:29:44.080Z,1.87
2019-06-15T12:32:10.306Z,2.05
2019-06-15T12:34:36.535Z,2.10
2019-06-15T12:37:03.179Z,1.90
2019-06-15T12:39:29.285Z,1.92
2019-06-15T12:41:57.361Z,1.90
2019-06-15T12:44:25.419Z,1.40
2019-06-15T12:46:51.663Z,1.80
2019-06-15T12:49:17.924Z,1.37
2019-06-15T12:51:44.174Z,1.65
2019-06-15T12:54:10.414Z,1.45
2019-06-15T12:56:36.651Z,1.37
2019-06-15T12:59:02.897Z,1.27
2019-06-15T13:01:29.138Z,1.45
2019-06-15T13:03:55.376Z,1.25
2019-06-15T13:06:21.506Z,1.35
2019-06-15T13:08:47.753Z,1.77
2019-06-15T13:11:14.004Z,1.20
2019-06-15T13:13:40.142Z,1.47
2019-06-15T13:16:06.278Z,1.62
2019-06-15T13:18:32.499Z,1.37
2019-06-15T13:20:58.651Z,1.27
2019-06-15T13:23:24.875Z,1.30
2019-06-15T13:25:51.181Z,1.62
2019-06-15T13:28:17.385Z,1.17
2019-06-15T13:30:47.008Z,1.35
2019-06-15T13:33:13.252Z,1.20
2019-06-15T13:35:42.025Z,1.20
2019-06-15T13:38:08.276Z,1.40
2019-06-15T13:40:34.549Z,1.37
2019-06-15T13:43:00.671Z,1.20
2019-06-15T13:45:26.820Z,1.42
2019-06-15T13:47:53.065Z,1.15
2019-06-15T13:50:19.222Z,1.30
2019-06-15T13:52:45.458Z,1.42
2019-06-15T13:55:12.508Z,1.10
2019-06-15T13:57:38.636Z,1.47
2019-06-15T14:00:05.960Z,1.20
2019-06-15T14:02:32.211Z,1.20
2019-06-15T14:04:58.428Z,1.00
2019-06-15T14:07:24.669Z,1.22
2019-06-15T14:09:50.917Z,0.88
2019-06-15T14:12:17.061Z,0.90
2019-06-15T14:14:43.301Z,0.98
2019-06-15T14:17:09.550Z,1.32
2019-06-15T14:19:35.683Z,1.17
2019-06-15T14:22:01.839Z,0.95
2019-06-15T14:24:28.572Z,1.00
2019-06-15T14:26:54.697Z,0.93
2019-06-15T14:29:20.942Z,1.07
2019-06-15T14:31:50.471Z,1.20
2019-06-15T14:34:15.317Z,1.10
2019-06-15T14:36:41.462Z,0.82
2019-06-15T14:39:07.740Z,1.00
2019-06-15T14:41:33.868Z,0.90
2019-06-15T14:44:00.019Z,0.95
2019-06-15T14:46:26.354Z,1.15
2019-06-15T14:48:52.593Z,1.12
2019-06-15T14:51:18.858Z,1.02
2019-06-15T14:53:49.843Z,1.10
2019-06-15T14:56:16.042Z,1.07
2019-06-15T14:58:42.044Z,1.27
2019-06-15T15:01:08.302Z,1.20
2019-06-15T15:03:37.439Z,1.07
2019-06-15T15:06:02.674Z,1.20
2019-06-15T15:08:28.920Z,0.90
2019-06-15T15:10:56.294Z,1.00
2019-06-15T15:13:22.690Z,0.88
2019-06-15T15:15:53.130Z,1.10
2019-06-15T15:18:19.609Z,1.20
2019-06-15T15:20:45.809Z,0.95
2019-06-15T15:23:12.056Z,1.10
2019-06-15T15:25:38.311Z,1.07
2019-06-15T15:28:07.181Z,1.12
2019-06-15T15:30:38.482Z,1.20
2019-06-15T15:33:06.789Z,1.10
2019-06-15T15:35:32.960Z,1.37
2019-06-15T15:37:59.194Z,1.30
2019-06-15T15:40:27.455Z,1.57
2019-06-15T15:42:56.109Z,1.20
2019-06-15T15:45:21.749Z,1.03
2019-06-15T15:47:47.968Z,1.30
2019-06-15T15:50:17.490Z,1.30
2019-06-15T15:52:42.463Z,1.20
2019-06-15T15:55:08.698Z,0.80
2019-06-15T15:57:36.334Z,1.13
2019-06-15T16:00:07.377Z,0.90
2019-06-15T16:02:45.420Z,1.20
2019-06-15T16:05:01.672Z,1.20
2019-06-15T16:07:28.087Z,1.20
2019-06-15T16:09:54.342Z,1.13
2019-06-15T16:12:20.595Z,1.00
2019-06-15T16:14:46.843Z,1.07
2019-06-15T16:17:13.079Z,0.73
2019-06-15T16:19:39.329Z,1.10
2019-06-15T16:22:05.561Z,1.00
2019-06-15T16:24:31.822Z,0.90
2019-06-15T16:26:58.050Z,0.70
2019-06-15T16:29:24.276Z,0.90
2019-06-15T16:31:50.531Z,2.20
2019-06-15T16:34:16.790Z,1.17
2019-06-15T16:36:43.040Z,6.40
2019-06-15T16:39:09.279Z,1.63
2019-06-15T16:41:36.437Z,8.37
2019-06-15T16:44:02.779Z,1.30
2019-06-15T16:46:29.021Z,0.70
2019-06-15T16:48:55.968Z,1.00
2019-06-15T16:51:22.420Z,1.00
2019-06-15T16:53:48.665Z,0.90
2019-06-15T16:56:16.624Z,0.70
2019-06-15T16:58:43.067Z,1.00
2019-06-15T17:01:09.313Z,3.17
2019-06-15T17:03:36.675Z,3.10
2019-06-15T17:06:06.887Z,1.00
2019-06-15T17:08:32.037Z,0.97
2019-06-15T17:10:58.277Z,1.40
2019-06-15T17:13:26.055Z,1.40
2019-06-15T17:15:52.476Z,0.70
2019-06-15T17:18:18.705Z,1.10
2019-06-15T17:20:51.772Z,1.10
2019-06-15T17:23:18.124Z,0.70
2019-06-15T17:25:44.257Z,0.90
2019-06-15T17:28:10.504Z,0.93
2019-06-15T17:30:37.088Z,1.10
2019-06-15T17:33:05.211Z,1.00
2019-06-15T17:35:31.570Z,0.83
2019-06-15T17:37:57.830Z,0.87
2019-06-15T17:40:24.067Z,0.80
2019-06-15T17:42:50.369Z,0.90
2019-06-15T17:45:16.644Z,1.33
2019-06-15T17:47:42.864Z,1.10
2019-06-15T17:50:09.409Z,1.10
2019-06-15T17:52:36.098Z,0.80
2019-06-15T17:55:06.979Z,0.80
2019-06-15T17:57:32.935Z,1.03
2019-06-15T17:59:59.158Z,0.80
2019-06-15T18:02:26.266Z,0.77
2019-06-15T18:04:52.541Z,0.70
2019-06-15T18:07:18.809Z,1.00
2019-06-15T18:09:46.586Z,0.90
2019-06-15T18:12:13.088Z,1.30
2019-06-15T18:14:39.351Z,0.90
2019-06-15T18:17:07.222Z,1.10
2019-06-15T18:19:33.724Z,0.90
2019-06-15T18:21:59.976Z,0.77
2019-06-15T18:24:26.697Z,0.80
2019-06-15T18:26:53.057Z,1.00
2019-06-15T18:29:19.203Z,1.20
2019-06-15T18:31:45.459Z,0.90
2019-06-15T18:34:13.267Z,0.90
2019-06-15T18:36:39.825Z,0.80
2019-06-15T18:39:06.281Z,0.73
2019-06-15T18:41:32.583Z,0.73
2019-06-15T18:43:58.820Z,1.10
2019-06-15T18:46:27.314Z,0.80
2019-06-15T18:48:53.538Z,0.80
2019-06-15T18:51:19.797Z,0.90
2019-06-15T18:53:46.552Z,0.97
2019-06-15T18:56:12.999Z,0.83
2019-06-15T18:58:39.269Z,0.90
2019-06-15T19:01:06.920Z,0.80
2019-06-15T19:03:33.580Z,0.80
2019-06-15T19:05:59.829Z,0.90
2019-06-15T19:08:26.191Z,0.80
2019-06-15T19:10:52.460Z,1.00
2019-06-15T19:13:18.691Z,1.20
2019-06-15T19:15:46.424Z,1.10
2019-06-15T19:18:13.274Z,0.80
2019-06-15T19:20:39.562Z,0.87
2019-06-15T19:23:06.826Z,1.20
2019-06-15T19:25:36.130Z,0.80
2019-06-15T19:28:01.733Z,0.60
2019-06-15T19:30:27.941Z,0.80
2019-06-15T19:32:56.524Z,0.70
2019-06-15T19:35:22.337Z,0.50
2019-06-15T19:37:48.591Z,0.70
2019-06-15T19:40:16.179Z,0.90
2019-06-15T19:42:42.579Z,0.60
2019-06-15T19:45:10.671Z,0.77
2019-06-15T19:47:37.927Z,0.60
2019-06-15T19:50:06.548Z,0.90
2019-06-15T19:52:35.920Z,0.93
2019-06-15T19:55:01.892Z,0.93
2019-06-15T19:57:28.200Z,0.70
2019-06-15T19:59:56.169Z,0.90
2019-06-15T20:02:22.595Z,0.57
2019-06-15T20:05:00.349Z,0.80
2019-06-15T20:07:17.144Z,0.80
2019-06-15T20:09:43.382Z,0.97
2019-06-15T20:12:18.288Z,0.60
2019-06-15T20:14:37.768Z,0.90
2019-06-15T20:17:04.017Z,0.70
2019-06-15T20:19:30.278Z,0.80
2019-06-15T20:21:56.944Z,0.70
2019-06-15T20:24:27.003Z,0.70
2019-06-15T20:26:52.710Z,0.90
2019-06-15T20:29:18.954Z,0.90
2019-06-15T20:31:46.277Z,0.70
2019-06-15T20:34:12.703Z,0.70
2019-06-15T20:36:38.955Z,0.70
2019-06-15T20:39:08.103Z,0.60
2019-06-15T20:41:36.401Z,0.77
2019-06-15T20:44:03.071Z,0.70
2019-06-15T20:46:29.224Z,0.70
2019-06-15T20:48:56.499Z,0.80
2019-06-15T20:51:22.900Z,0.70
2019-06-15T20:53:49.140Z,0.50
2019-06-15T20:56:17.090Z,0.70
2019-06-15T20:58:43.313Z,0.70
2019-06-15T21:01:09.437Z,0.80
2019-06-15T21:03:36.656Z,0.50
2019-06-15T21:06:03.213Z,0.67
2019-06-15T21:08:29.450Z,0.90
2019-06-15T21:10:56.372Z,1.00
2019-06-15T21:13:22.799Z,0.70
2019-06-15T21:15:49.044Z,0.77
2019-06-15T21:18:15.190Z,0.60
2019-06-15T21:20:41.433Z,0.60
2019-06-15T21:23:07.559Z,0.60
2019-06-15T21:25:33.806Z,0.97
2019-06-15T21:28:00.050Z,0.97
2019-06-15T21:30:27.068Z,0.67
2019-06-15T21:32:55.839Z,0.90
2019-06-15T21:35:21.608Z,0.80
2019-06-15T21:37:47.854Z,0.90
2019-06-15T21:40:15.999Z,1.03
2019-06-15T21:42:42.430Z,1.20
2019-06-15T21:45:08.763Z,1.10
2019-06-15T21:47:37.205Z,1.10
2019-06-15T21:50:06.475Z,1.10
2019-06-15T21:52:32.702Z,0.90
2019-06-15T21:54:58.942Z,1.10
2019-06-15T21:57:26.859Z,1.03
2019-06-15T21:59:53.307Z,1.30
2019-06-15T22:02:19.564Z,1.40
2019-06-15T22:04:46.182Z,1.47
2019-06-15T22:07:12.411Z,1.40
2019-06-15T22:09:38.647Z,1.43
2019-06-15T22:12:06.839Z,1.60
2019-06-15T22:14:33.032Z,2.00
2019-06-15T22:16:59.767Z,1.20
2019-06-15T22:19:26.284Z,1.10
2019-06-15T22:21:52.698Z,1.50
2019-06-15T22:24:18.947Z,1.40
2019-06-15T22:26:46.738Z,1.70
2019-06-15T22:29:13.219Z,1.73
2019-06-15T22:31:39.447Z,1.87
2019-06-15T22:34:06.580Z,1.90
2019-06-15T22:36:32.934Z,1.73
2019-06-15T22:38:59.178Z,1.87
2019-06-15T22:41:25.310Z,1.50
2019-06-15T22:43:51.553Z,1.60
2019-06-15T22:46:17.787Z,1.47
2019-06-15T22:48:46.806Z,1.77
2019-06-15T22:51:12.580Z,1.50
2019-06-15T22:53:38.795Z,1.27
2019-06-15T22:56:06.625Z,1.50
2019-06-15T22:58:33.121Z,1.60
2019-06-15T23:00:59.244Z,1.43
2019-06-15T23:03:26.202Z,1.50
2019-06-15T23:05:52.532Z,1.33
2019-06-15T23:08:18.756Z,1.30
2019-06-15T23:10:46.891Z,0.97
2019-06-15T23:13:13.121Z,1.00
2019-06-15T23:15:39.245Z,1.20
2019-06-15T23:18:06.722Z,1.27
2019-06-15T23:20:33.148Z,1.37
2019-06-15T23:22:59.384Z,1.30
2019-06-15T23:25:27.472Z,1.33
2019-06-15T23:27:56.206Z,1.53
2019-06-15T23:30:21.834Z,1.10
2019-06-15T23:32:48.063Z,1.00
2019-06-15T23:35:16.648Z,1.50
2019-06-15T23:37:42.650Z,0.90
2019-06-15T23:40:23.244Z,1.13
2019-06-15T23:42:49.682Z,1.20
2019-06-15T23:45:16.914Z,1.30
2019-06-15T23:47:43.146Z,1.03
2019-06-15T23:50:09.583Z,1.17
2019-06-15T23:52:36.292Z,1.30
2019-06-15T23:55:04.748Z,1.60
2019-06-15T23:57:30.994Z,1.70
2019-06-15T23:59:57.120Z,1.63
